sensor_id;sensor_type;location;lat;lon;timestamp;temperature;humidity
41427;DHT22;27171;51.812;19.514;2023-04-03T00:01:20;0.60;99.90
41427;DHT22;27171;51.812;19.514;2023-04-03T00:04:21;0.60;99.90
41427;DHT22;27171;51.812;19.514;2023-04-03T00:07:22;0.60;99.90
41427;DHT22;27171;51.812;19.514;2023-04-03T00:10:23;0.60;99.90
41427;DHT22;27171;51.812;19.514;2023-04-03T00:13:24;0.50;99.90
41427;DHT22;27171;51.812;19.514;2023-04-03T00:16:25;0.50;99.90
41427;DHT22;27171;51.812;19.514;2023-04-03T00:19:27;0.50;99.90
41427;DHT22;27171;51.812;19.514;2023-04-03T00:22:27;0.50;99.90
41427;DHT22;27171;51.812;19.514;2023-04-03T00:25:29;0.50;99.90
41427;DHT22;27171;51.812;19.514;2023-04-03T00:28:30;0.40;99.90
41427;DHT22;27171;51.812;19.514;2023-04-03T00:31:31;0.40;99.90
41427;DHT22;27171;51.812;19.514;2023-04-03T00:34:32;0.40;99.90
41427;DHT22;27171;51.812;19.514;2023-04-03T00:37:33;0.40;99.90
41427;DHT22;27171;51.812;19.514;2023-04-03T00:40:39;0.40;99.90
41427;DHT22;27171;51.812;19.514;2023-04-03T00:43:42;0.30;99.90
41427;DHT22;27171;51.812;19.514;2023-04-03T00:46:43;0.30;99.90
41427;DHT22;27171;51.812;19.514;2023-04-03T00:49:45;0.30;99.90
41427;DHT22;27171;51.812;19.514;2023-04-03T00:52:46;0.30;99.90
41427;DHT22;27171;51.812;19.514;2023-04-03T00:55:49;0.20;99.90
41427;DHT22;27171;51.812;19.514;2023-04-03T00:59:04;0.20;99.90
41427;DHT22;27171;51.812;19.514;2023-04-03T01:02:05;0.10;99.90
41427;DHT22;27171;51.812;19.514;2023-04-03T01:05:06;0.10;99.90
41427;DHT22;27171;51.812;19.514;2023-04-03T01:08:08;0.00;99.90
41427;DHT22;27171;51.812;19.514;2023-04-03T01:11:09;0.00;99.90
41427;DHT22;27171;51.812;19.514;2023-04-03T01:14:10;0.00;99.90
41427;DHT22;27171;51.812;19.514;2023-04-03T01:27:10;-0.20;99.90
41427;DHT22;27171;51.812;19.514;2023-04-03T01:30:12;-0.20;99.90
41427;DHT22;27171;51.812;19.514;2023-04-03T01:33:17;-0.20;99.90
41427;DHT22;27171;51.812;19.514;2023-04-03T01:36:26;-0.20;99.90
41427;DHT22;27171;51.812;19.514;2023-04-03T01:39:28;-0.30;99.90
41427;DHT22;27171;51.812;19.514;2023-04-03T01:42:30;-0.30;99.90
41427;DHT22;27171;51.812;19.514;2023-04-03T01:45:31;-0.30;99.90
41427;DHT22;27171;51.812;19.514;2023-04-03T01:48:32;-0.30;99.90
41427;DHT22;27171;51.812;19.514;2023-04-03T01:51:33;-0.40;99.90
41427;DHT22;27171;51.812;19.514;2023-04-03T01:54:34;-0.40;99.90
41427;DHT22;27171;51.812;19.514;2023-04-03T01:57:35;-0.40;99.90
41427;DHT22;27171;51.812;19.514;2023-04-03T02:00:37;-0.40;99.90
41427;DHT22;27171;51.812;19.514;2023-04-03T02:03:38;-0.50;99.90
41427;DHT22;27171;51.812;19.514;2023-04-03T02:06:39;-0.50;99.90
41427;DHT22;27171;51.812;19.514;2023-04-03T02:09:40;-0.50;99.90
41427;DHT22;27171;51.812;19.514;2023-04-03T02:12:43;-0.50;99.90
41427;DHT22;27171;51.812;19.514;2023-04-03T02:15:44;-0.60;99.90
41427;DHT22;27171;51.812;19.514;2023-04-03T02:18:45;-0.60;99.90
41427;DHT22;27171;51.812;19.514;2023-04-03T02:21:46;-0.60;99.90
41427;DHT22;27171;51.812;19.514;2023-04-03T02:24:49;-0.60;99.90
41427;DHT22;27171;51.812;19.514;2023-04-03T02:27:50;-0.60;99.90
41427;DHT22;27171;51.812;19.514;2023-04-03T02:30:51;-0.60;99.90
41427;DHT22;27171;51.812;19.514;2023-04-03T02:33:52;-0.60;99.90
41427;DHT22;27171;51.812;19.514;2023-04-03T02:36:53;-0.70;99.90
41427;DHT22;27171;51.812;19.514;2023-04-03T02:39:54;-0.70;99.90
41427;DHT22;27171;51.812;19.514;2023-04-03T02:42:56;-0.70;99.90
41427;DHT22;27171;51.812;19.514;2023-04-03T02:45:58;-0.70;99.90
41427;DHT22;27171;51.812;19.514;2023-04-03T02:49:00;-0.70;99.90
41427;DHT22;27171;51.812;19.514;2023-04-03T02:52:01;-0.70;99.90
41427;DHT22;27171;51.812;19.514;2023-04-03T02:55:01;-0.70;99.90
41427;DHT22;27171;51.812;19.514;2023-04-03T02:58:03;-0.70;99.90
41427;DHT22;27171;51.812;19.514;2023-04-03T03:01:04;-0.80;99.90
41427;DHT22;27171;51.812;19.514;2023-04-03T03:04:05;-0.70;99.90
41427;DHT22;27171;51.812;19.514;2023-04-03T03:07:06;-0.70;99.90
41427;DHT22;27171;51.812;19.514;2023-04-03T03:10:08;-0.70;99.90
41427;DHT22;27171;51.812;19.514;2023-04-03T03:13:09;-0.70;99.90
41427;DHT22;27171;51.812;19.514;2023-04-03T03:16:10;-0.70;99.90
41427;DHT22;27171;51.812;19.514;2023-04-03T03:19:11;-0.70;99.90
41427;DHT22;27171;51.812;19.514;2023-04-03T03:22:12;-0.70;99.90
41427;DHT22;27171;51.812;19.514;2023-04-03T03:25:13;-0.70;99.90
41427;DHT22;27171;51.812;19.514;2023-04-03T03:28:14;-0.80;99.90
41427;DHT22;27171;51.812;19.514;2023-04-03T03:31:15;-0.80;99.90
41427;DHT22;27171;51.812;19.514;2023-04-03T03:34:17;-0.80;99.90
41427;DHT22;27171;51.812;19.514;2023-04-03T03:37:18;-0.80;99.90
41427;DHT22;27171;51.812;19.514;2023-04-03T03:40:22;-0.80;99.90
41427;DHT22;27171;51.812;19.514;2023-04-03T03:43:23;-0.90;99.90
41427;DHT22;27171;51.812;19.514;2023-04-03T03:46:25;-0.90;99.90
41427;DHT22;27171;51.812;19.514;2023-04-03T03:49:28;-0.90;99.90
41427;DHT22;27171;51.812;19.514;2023-04-03T03:52:29;-0.90;99.90
41427;DHT22;27171;51.812;19.514;2023-04-03T03:55:30;-0.90;99.90
41427;DHT22;27171;51.812;19.514;2023-04-03T03:58:32;-1.00;99.90
41427;DHT22;27171;51.812;19.514;2023-04-03T04:01:34;-1.00;99.90
41427;DHT22;27171;51.812;19.514;2023-04-03T04:04:36;-1.00;99.90
41427;DHT22;27171;51.812;19.514;2023-04-03T04:07:37;-1.10;99.90
41427;DHT22;27171;51.812;19.514;2023-04-03T04:10:39;-1.10;99.90
41427;DHT22;27171;51.812;19.514;2023-04-03T04:13:41;-1.10;99.90
41427;DHT22;27171;51.812;19.514;2023-04-03T04:16:44;-1.10;99.90
41427;DHT22;27171;51.812;19.514;2023-04-03T04:19:50;-1.10;99.90
41427;DHT22;27171;51.812;19.514;2023-04-03T04:22:51;-1.20;99.90
41427;DHT22;27171;51.812;19.514;2023-04-03T04:25:54;-1.20;99.90
41427;DHT22;27171;51.812;19.514;2023-04-03T04:28:56;-1.20;99.90
41427;DHT22;27171;51.812;19.514;2023-04-03T04:31:57;-1.20;99.90
41427;DHT22;27171;51.812;19.514;2023-04-03T04:34:58;-1.20;99.90
41427;DHT22;27171;51.812;19.514;2023-04-03T04:38:00;-1.20;99.90
41427;DHT22;27171;51.812;19.514;2023-04-03T04:41:01;-1.20;99.90
41427;DHT22;27171;51.812;19.514;2023-04-03T04:44:03;-1.30;99.90
41427;DHT22;27171;51.812;19.514;2023-04-03T04:47:04;-1.30;99.90
41427;DHT22;27171;51.812;19.514;2023-04-03T04:50:06;-1.20;99.90
41427;DHT22;27171;51.812;19.514;2023-04-03T04:53:07;-1.30;99.90
41427;DHT22;27171;51.812;19.514;2023-04-03T04:56:08;-1.30;99.90
41427;DHT22;27171;51.812;19.514;2023-04-03T04:59:11;-1.20;99.90
41427;DHT22;27171;51.812;19.514;2023-04-03T05:02:12;-1.20;99.90
41427;DHT22;27171;51.812;19.514;2023-04-03T05:05:15;-1.20;99.90
41427;DHT22;27171;51.812;19.514;2023-04-03T05:08:16;-1.10;99.90
41427;DHT22;27171;51.812;19.514;2023-04-03T05:11:17;-1.00;99.90
41427;DHT22;27171;51.812;19.514;2023-04-03T05:14:21;-1.00;99.90
41427;DHT22;27171;51.812;19.514;2023-04-03T05:17:22;-0.90;99.90
41427;DHT22;27171;51.812;19.514;2023-04-03T05:20:27;-0.80;99.90
41427;DHT22;27171;51.812;19.514;2023-04-03T05:23:29;-0.70;99.90
41427;DHT22;27171;51.812;19.514;2023-04-03T05:26:32;-0.60;99.90
41427;DHT22;27171;51.812;19.514;2023-04-03T05:29:34;-0.50;99.90
41427;DHT22;27171;51.812;19.514;2023-04-03T05:32:36;-0.50;99.90
41427;DHT22;27171;51.812;19.514;2023-04-03T05:35:47;-0.40;99.90
41427;DHT22;27171;51.812;19.514;2023-04-03T05:38:53;-0.40;99.90
41427;DHT22;27171;51.812;19.514;2023-04-03T05:41:54;-0.30;99.90
41427;DHT22;27171;51.812;19.514;2023-04-03T05:44:59;-0.30;99.90
41427;DHT22;27171;51.812;19.514;2023-04-03T05:48:00;-0.20;99.90
41427;DHT22;27171;51.812;19.514;2023-04-03T05:51:03;-0.20;99.90
41427;DHT22;27171;51.812;19.514;2023-04-03T05:54:17;-0.20;99.90
41427;DHT22;27171;51.812;19.514;2023-04-03T05:57:19;-0.10;99.90
41427;DHT22;27171;51.812;19.514;2023-04-03T06:00:21;-0.10;99.90
41427;DHT22;27171;51.812;19.514;2023-04-03T06:03:31;-0.10;99.90
41427;DHT22;27171;51.812;19.514;2023-04-03T06:06:47;0.00;99.90
41427;DHT22;27171;51.812;19.514;2023-04-03T06:09:50;0.10;99.90
41427;DHT22;27171;51.812;19.514;2023-04-03T06:12:51;0.10;99.90
41427;DHT22;27171;51.812;19.514;2023-04-03T06:15:52;0.20;99.90
41427;DHT22;27171;51.812;19.514;2023-04-03T06:18:53;0.30;99.90
41427;DHT22;27171;51.812;19.514;2023-04-03T06:21:54;0.30;99.90
41427;DHT22;27171;51.812;19.514;2023-04-03T06:24:56;0.30;99.90
41427;DHT22;27171;51.812;19.514;2023-04-03T06:27:57;0.30;99.90
41427;DHT22;27171;51.812;19.514;2023-04-03T06:30:58;0.40;99.90
41427;DHT22;27171;51.812;19.514;2023-04-03T06:33:59;0.50;99.90
41427;DHT22;27171;51.812;19.514;2023-04-03T06:37:00;0.50;99.90
41427;DHT22;27171;51.812;19.514;2023-04-03T06:40:02;0.60;99.90
41427;DHT22;27171;51.812;19.514;2023-04-03T06:43:03;0.70;99.90
41427;DHT22;27171;51.812;19.514;2023-04-03T06:46:04;0.70;99.90
41427;DHT22;27171;51.812;19.514;2023-04-03T06:49:06;0.70;99.90
41427;DHT22;27171;51.812;19.514;2023-04-03T06:52:08;0.70;99.90
41427;DHT22;27171;51.812;19.514;2023-04-03T06:55:10;0.70;99.90
41427;DHT22;27171;51.812;19.514;2023-04-03T06:58:11;0.80;99.90
41427;DHT22;27171;51.812;19.514;2023-04-03T07:01:14;0.80;99.90
41427;DHT22;27171;51.812;19.514;2023-04-03T07:04:15;0.90;99.90
41427;DHT22;27171;51.812;19.514;2023-04-03T07:07:16;0.90;99.90
41427;DHT22;27171;51.812;19.514;2023-04-03T07:10:18;0.90;99.90
41427;DHT22;27171;51.812;19.514;2023-04-03T07:13:19;0.90;99.90
41427;DHT22;27171;51.812;19.514;2023-04-03T07:16:20;0.90;99.90
41427;DHT22;27171;51.812;19.514;2023-04-03T07:19:21;0.80;99.90
41427;DHT22;27171;51.812;19.514;2023-04-03T07:22:22;0.80;99.90
41427;DHT22;27171;51.812;19.514;2023-04-03T07:25:23;0.80;99.90
41427;DHT22;27171;51.812;19.514;2023-04-03T07:28:24;0.90;99.90
41427;DHT22;27171;51.812;19.514;2023-04-03T07:31:25;0.90;99.90
41427;DHT22;27171;51.812;19.514;2023-04-03T07:34:27;0.90;99.90
41427;DHT22;27171;51.812;19.514;2023-04-03T07:37:28;0.90;99.90
41427;DHT22;27171;51.812;19.514;2023-04-03T07:40:29;1.00;99.90
41427;DHT22;27171;51.812;19.514;2023-04-03T07:43:30;1.00;99.90
41427;DHT22;27171;51.812;19.514;2023-04-03T07:46:31;1.00;99.90
41427;DHT22;27171;51.812;19.514;2023-04-03T07:49:32;1.00;99.90
41427;DHT22;27171;51.812;19.514;2023-04-03T07:52:33;1.00;99.90
41427;DHT22;27171;51.812;19.514;2023-04-03T07:55:35;1.10;99.90
41427;DHT22;27171;51.812;19.514;2023-04-03T07:58:36;1.10;99.90
41427;DHT22;27171;51.812;19.514;2023-04-03T08:01:37;1.20;99.90
41427;DHT22;27171;51.812;19.514;2023-04-03T08:04:38;1.20;99.90
41427;DHT22;27171;51.812;19.514;2023-04-03T08:07:39;1.10;99.90
41427;DHT22;27171;51.812;19.514;2023-04-03T08:10:41;1.10;99.90
41427;DHT22;27171;51.812;19.514;2023-04-03T08:13:42;1.20;99.90
41427;DHT22;27171;51.812;19.514;2023-04-03T08:16:43;1.10;99.90
41427;DHT22;27171;51.812;19.514;2023-04-03T08:19:44;1.20;99.90
41427;DHT22;27171;51.812;19.514;2023-04-03T08:22:45;1.10;99.90
41427;DHT22;27171;51.812;19.514;2023-04-03T08:25:46;1.10;99.90
41427;DHT22;27171;51.812;19.514;2023-04-03T08:28:48;1.20;99.90
41427;DHT22;27171;51.812;19.514;2023-04-03T08:31:50;1.30;99.90
41427;DHT22;27171;51.812;19.514;2023-04-03T08:34:51;1.30;99.90
41427;DHT22;27171;51.812;19.514;2023-04-03T08:37:52;1.40;99.90
41427;DHT22;27171;51.812;19.514;2023-04-03T08:41:02;1.40;99.90
41427;DHT22;27171;51.812;19.514;2023-04-03T08:47:23;1.40;99.90
41427;DHT22;27171;51.812;19.514;2023-04-03T08:50:37;1.30;99.90
41427;DHT22;27171;51.812;19.514;2023-04-03T08:53:43;1.40;99.90
41427;DHT22;27171;51.812;19.514;2023-04-03T08:56:45;1.50;99.90
41427;DHT22;27171;51.812;19.514;2023-04-03T08:59:46;1.50;99.90
41427;DHT22;27171;51.812;19.514;2023-04-03T09:02:48;1.60;99.90
41427;DHT22;27171;51.812;19.514;2023-04-03T09:05:57;1.60;99.90
41427;DHT22;27171;51.812;19.514;2023-04-03T09:09:15;1.60;99.90
41427;DHT22;27171;51.812;19.514;2023-04-03T09:12:26;1.70;99.90
41427;DHT22;27171;51.812;19.514;2023-04-03T09:15:28;1.70;99.90
41427;DHT22;27171;51.812;19.514;2023-04-03T09:18:32;1.80;99.90
41427;DHT22;27171;51.812;19.514;2023-04-03T09:21:39;1.90;99.90
41427;DHT22;27171;51.812;19.514;2023-04-03T09:24:41;2.00;99.90
41427;DHT22;27171;51.812;19.514;2023-04-03T09:27:43;2.10;99.90
41427;DHT22;27171;51.812;19.514;2023-04-03T09:30:44;2.20;99.90
41427;DHT22;27171;51.812;19.514;2023-04-03T09:33:45;2.40;99.90
41427;DHT22;27171;51.812;19.514;2023-04-03T09:36:50;2.40;99.90
41427;DHT22;27171;51.812;19.514;2023-04-03T09:39:53;2.50;99.90
41427;DHT22;27171;51.812;19.514;2023-04-03T09:42:56;2.60;99.90
41427;DHT22;27171;51.812;19.514;2023-04-03T09:51:15;2.80;99.90
41427;DHT22;27171;51.812;19.514;2023-04-03T09:54:31;2.80;99.90
41427;DHT22;27171;51.812;19.514;2023-04-03T09:57:33;2.70;99.90
41427;DHT22;27171;51.812;19.514;2023-04-03T10:00:37;2.60;99.90
41427;DHT22;27171;51.812;19.514;2023-04-03T10:03:38;2.60;99.90
41427;DHT22;27171;51.812;19.514;2023-04-03T10:06:46;2.50;99.90
41427;DHT22;27171;51.812;19.514;2023-04-03T10:10:02;2.60;99.90
41427;DHT22;27171;51.812;19.514;2023-04-03T10:13:06;2.60;99.90
41427;DHT22;27171;51.812;19.514;2023-04-03T10:16:13;2.70;99.90
41427;DHT22;27171;51.812;19.514;2023-04-03T10:22:49;2.60;99.90
41427;DHT22;27171;51.812;19.514;2023-04-03T10:26:17;2.60;99.90
41427;DHT22;27171;51.812;19.514;2023-04-03T10:32:54;2.60;99.90
41427;DHT22;27171;51.812;19.514;2023-04-03T10:36:10;2.60;99.90
41427;DHT22;27171;51.812;19.514;2023-04-03T10:42:43;2.70;99.90
41427;DHT22;27171;51.812;19.514;2023-04-03T10:52:22;2.90;98.40
41427;DHT22;27171;51.812;19.514;2023-04-03T10:55:34;2.90;99.10
41427;DHT22;27171;51.812;19.514;2023-04-03T10:58:40;3.10;99.90
41427;DHT22;27171;51.812;19.514;2023-04-03T11:01:45;3.20;98.10
41427;DHT22;27171;51.812;19.514;2023-04-03T11:04:55;3.20;99.90
41427;DHT22;27171;51.812;19.514;2023-04-03T11:08:48;3.40;99.90
41427;DHT22;27171;51.812;19.514;2023-04-03T11:11:26;3.50;97.80
41427;DHT22;27171;51.812;19.514;2023-04-03T11:14:32;3.60;98.20
41427;DHT22;27171;51.812;19.514;2023-04-03T11:17:43;3.50;98.40
41427;DHT22;27171;51.812;19.514;2023-04-03T11:20:56;3.60;99.70
41427;DHT22;27171;51.812;19.514;2023-04-03T11:23:59;3.80;99.80
41427;DHT22;27171;51.812;19.514;2023-04-03T11:27:03;3.90;99.40
41427;DHT22;27171;51.812;19.514;2023-04-03T11:30:08;3.90;98.80
41427;DHT22;27171;51.812;19.514;2023-04-03T11:36:40;3.80;97.20
41427;DHT22;27171;51.812;19.514;2023-04-03T11:39:57;3.90;96.60
41427;DHT22;27171;51.812;19.514;2023-04-03T11:46:04;3.80;96.10
41427;DHT22;27171;51.812;19.514;2023-04-03T12:02:36;4.20;90.80
41427;DHT22;27171;51.812;19.514;2023-04-03T12:05:38;4.20;93.60
41427;DHT22;27171;51.812;19.514;2023-04-03T12:11:40;4.10;94.00
41427;DHT22;27171;51.812;19.514;2023-04-03T12:14:41;4.10;88.40
41427;DHT22;27171;51.812;19.514;2023-04-03T12:17:42;4.10;93.80
41427;DHT22;27171;51.812;19.514;2023-04-03T12:20:53;4.10;92.80
41427;DHT22;27171;51.812;19.514;2023-04-03T12:30:27;4.10;91.80
41427;DHT22;27171;51.812;19.514;2023-04-03T12:37:05;4.20;90.10
41427;DHT22;27171;51.812;19.514;2023-04-03T12:43:42;4.30;92.10
41427;DHT22;27171;51.812;19.514;2023-04-03T12:46:49;4.20;89.60
41427;DHT22;27171;51.812;19.514;2023-04-03T12:49:52;4.30;91.30
41427;DHT22;27171;51.812;19.514;2023-04-03T12:53:04;4.40;91.30
41427;DHT22;27171;51.812;19.514;2023-04-03T12:59:27;4.30;90.80
41427;DHT22;27171;51.812;19.514;2023-04-03T13:02:34;4.30;92.40
41427;DHT22;27171;51.812;19.514;2023-04-03T13:05:35;4.40;91.70
41427;DHT22;27171;51.812;19.514;2023-04-03T13:08:36;4.50;92.10
41427;DHT22;27171;51.812;19.514;2023-04-03T13:11:40;4.40;91.20
41427;DHT22;27171;51.812;19.514;2023-04-03T13:14:53;4.40;90.20
41427;DHT22;27171;51.812;19.514;2023-04-03T13:17:55;4.30;86.30
41427;DHT22;27171;51.812;19.514;2023-04-03T13:21:13;4.30;91.20
41427;DHT22;27171;51.812;19.514;2023-04-03T13:24:15;4.30;92.10
41427;DHT22;27171;51.812;19.514;2023-04-03T13:27:17;4.30;91.70
41427;DHT22;27171;51.812;19.514;2023-04-03T13:30:28;4.30;91.80
41427;DHT22;27171;51.812;19.514;2023-04-03T13:33:32;4.30;91.00
41427;DHT22;27171;51.812;19.514;2023-04-03T13:36:37;4.30;91.50
41427;DHT22;27171;51.812;19.514;2023-04-03T13:39:39;4.20;89.10
41427;DHT22;27171;51.812;19.514;2023-04-03T13:42:41;4.30;91.80
41427;DHT22;27171;51.812;19.514;2023-04-03T13:46:05;4.30;92.40
41427;DHT22;27171;51.812;19.514;2023-04-03T13:52:40;4.30;91.30
41427;DHT22;27171;51.812;19.514;2023-04-03T13:55:57;4.30;92.20
41427;DHT22;27171;51.812;19.514;2023-04-03T13:59:06;4.30;89.70
41427;DHT22;27171;51.812;19.514;2023-04-03T14:02:15;4.30;91.60
41427;DHT22;27171;51.812;19.514;2023-04-03T14:05:16;4.30;91.20
41427;DHT22;27171;51.812;19.514;2023-04-03T14:08:17;4.20;91.80
41427;DHT22;27171;51.812;19.514;2023-04-03T14:11:19;4.10;85.40
41427;DHT22;27171;51.812;19.514;2023-04-03T14:14:23;4.00;85.70
41427;DHT22;27171;51.812;19.514;2023-04-03T14:17:28;4.00;90.50
41427;DHT22;27171;51.812;19.514;2023-04-03T14:20:29;4.00;90.20
41427;DHT22;27171;51.812;19.514;2023-04-03T14:23:30;4.00;92.40
41427;DHT22;27171;51.812;19.514;2023-04-03T14:26:31;4.10;91.50
41427;DHT22;27171;51.812;19.514;2023-04-03T14:29:33;4.10;90.00
41427;DHT22;27171;51.812;19.514;2023-04-03T14:32:34;4.10;91.10
41427;DHT22;27171;51.812;19.514;2023-04-03T14:35:36;4.10;91.80
41427;DHT22;27171;51.812;19.514;2023-04-03T14:38:37;4.10;92.00
41427;DHT22;27171;51.812;19.514;2023-04-03T14:41:38;4.10;92.60
41427;DHT22;27171;51.812;19.514;2023-04-03T14:44:40;4.10;92.00
41427;DHT22;27171;51.812;19.514;2023-04-03T14:47:52;4.10;91.60
41427;DHT22;27171;51.812;19.514;2023-04-03T14:50:53;4.10;91.30
41427;DHT22;27171;51.812;19.514;2023-04-03T14:53:55;4.20;91.50
41427;DHT22;27171;51.812;19.514;2023-04-03T14:56:57;4.20;91.40
41427;DHT22;27171;51.812;19.514;2023-04-03T14:59:59;4.30;92.30
41427;DHT22;27171;51.812;19.514;2023-04-03T15:03:00;4.30;92.60
41427;DHT22;27171;51.812;19.514;2023-04-03T15:06:01;4.30;88.00
41427;DHT22;27171;51.812;19.514;2023-04-03T15:12:25;4.20;90.30
41427;DHT22;27171;51.812;19.514;2023-04-03T15:15:29;4.20;88.10
41427;DHT22;27171;51.812;19.514;2023-04-03T15:18:35;4.10;88.40
41427;DHT22;27171;51.812;19.514;2023-04-03T15:21:38;4.10;88.80
41427;DHT22;27171;51.812;19.514;2023-04-03T15:24:39;4.10;90.20
41427;DHT22;27171;51.812;19.514;2023-04-03T15:27:40;4.10;90.60
41427;DHT22;27171;51.812;19.514;2023-04-03T15:30:42;4.10;85.20
41427;DHT22;27171;51.812;19.514;2023-04-03T15:33:43;4.00;85.70
41427;DHT22;27171;51.812;19.514;2023-04-03T15:36:43;4.00;89.50
41427;DHT22;27171;51.812;19.514;2023-04-03T15:39:45;3.90;81.00
41427;DHT22;27171;51.812;19.514;2023-04-03T15:42:46;3.90;88.20
41427;DHT22;27171;51.812;19.514;2023-04-03T15:45:47;3.90;89.80
41427;DHT22;27171;51.812;19.514;2023-04-03T15:48:49;3.80;88.70
41427;DHT22;27171;51.812;19.514;2023-04-03T15:51:50;3.80;90.20
41427;DHT22;27171;51.812;19.514;2023-04-03T15:54:51;3.80;91.50
41427;DHT22;27171;51.812;19.514;2023-04-03T15:57:52;3.80;91.40
41427;DHT22;27171;51.812;19.514;2023-04-03T16:00:53;3.80;85.70
41427;DHT22;27171;51.812;19.514;2023-04-03T16:03:54;3.70;86.30
41427;DHT22;27171;51.812;19.514;2023-04-03T16:06:55;3.70;91.90
41427;DHT22;27171;51.812;19.514;2023-04-03T16:09:56;3.70;92.20
41427;DHT22;27171;51.812;19.514;2023-04-03T16:12:57;3.70;92.20
41427;DHT22;27171;51.812;19.514;2023-04-03T16:15:59;3.70;92.40
41427;DHT22;27171;51.812;19.514;2023-04-03T16:19:01;3.60;92.20
41427;DHT22;27171;51.812;19.514;2023-04-03T16:22:02;3.60;93.00
41427;DHT22;27171;51.812;19.514;2023-04-03T16:25:05;3.50;93.40
41427;DHT22;27171;51.812;19.514;2023-04-03T16:28:07;3.50;93.30
41427;DHT22;27171;51.812;19.514;2023-04-03T16:31:09;3.50;94.00
41427;DHT22;27171;51.812;19.514;2023-04-03T16:34:11;3.50;93.60
41427;DHT22;27171;51.812;19.514;2023-04-03T16:37:12;3.40;94.30
41427;DHT22;27171;51.812;19.514;2023-04-03T16:40:13;3.40;94.50
41427;DHT22;27171;51.812;19.514;2023-04-03T16:43:15;3.40;93.70
41427;DHT22;27171;51.812;19.514;2023-04-03T16:46:16;3.40;95.10
41427;DHT22;27171;51.812;19.514;2023-04-03T16:49:19;3.40;95.00
41427;DHT22;27171;51.812;19.514;2023-04-03T16:52:20;3.30;94.80
41427;DHT22;27171;51.812;19.514;2023-04-03T16:55:21;3.30;95.00
41427;DHT22;27171;51.812;19.514;2023-04-03T16:58:22;3.30;95.40
41427;DHT22;27171;51.812;19.514;2023-04-03T17:01:24;3.30;94.20
41427;DHT22;27171;51.812;19.514;2023-04-03T17:04:24;3.20;95.30
41427;DHT22;27171;51.812;19.514;2023-04-03T17:07:26;3.20;94.20
41427;DHT22;27171;51.812;19.514;2023-04-03T17:10:28;3.20;95.70
41427;DHT22;27171;51.812;19.514;2023-04-03T17:13:29;3.20;96.30
41427;DHT22;27171;51.812;19.514;2023-04-03T17:16:30;3.10;95.80
41427;DHT22;27171;51.812;19.514;2023-04-03T17:19:31;3.10;95.70
41427;DHT22;27171;51.812;19.514;2023-04-03T17:22:33;3.10;96.20
41427;DHT22;27171;51.812;19.514;2023-04-03T17:25:35;3.10;96.40
41427;DHT22;27171;51.812;19.514;2023-04-03T17:28:35;3.10;96.80
41427;DHT22;27171;51.812;19.514;2023-04-03T17:31:36;3.00;96.60
41427;DHT22;27171;51.812;19.514;2023-04-03T17:34:38;3.00;97.40
41427;DHT22;27171;51.812;19.514;2023-04-03T17:37:38;2.90;97.60
41427;DHT22;27171;51.812;19.514;2023-04-03T17:40:40;2.90;98.20
41427;DHT22;27171;51.812;19.514;2023-04-03T17:43:41;2.90;98.00
41427;DHT22;27171;51.812;19.514;2023-04-03T17:46:42;2.80;98.90
41427;DHT22;27171;51.812;19.514;2023-04-03T17:49:44;2.80;99.10
41427;DHT22;27171;51.812;19.514;2023-04-03T17:52:46;2.70;99.30
41427;DHT22;27171;51.812;19.514;2023-04-03T17:55:47;2.70;99.80
41427;DHT22;27171;51.812;19.514;2023-04-03T17:58:50;2.70;99.40
41427;DHT22;27171;51.812;19.514;2023-04-03T18:01:51;2.60;99.90
41427;DHT22;27171;51.812;19.514;2023-04-03T18:04:52;2.60;99.90
41427;DHT22;27171;51.812;19.514;2023-04-03T18:07:53;2.50;99.90
41427;DHT22;27171;51.812;19.514;2023-04-03T18:10:55;2.50;99.90
41427;DHT22;27171;51.812;19.514;2023-04-03T18:13:58;2.50;99.90
41427;DHT22;27171;51.812;19.514;2023-04-03T18:17:00;2.40;99.90
41427;DHT22;27171;51.812;19.514;2023-04-03T18:20:02;2.40;99.90
41427;DHT22;27171;51.812;19.514;2023-04-03T18:23:05;2.30;99.90
41427;DHT22;27171;51.812;19.514;2023-04-03T18:26:08;2.30;99.90
41427;DHT22;27171;51.812;19.514;2023-04-03T18:29:10;2.30;99.90
41427;DHT22;27171;51.812;19.514;2023-04-03T18:32:14;2.20;99.90
41427;DHT22;27171;51.812;19.514;2023-04-03T18:35:17;2.20;99.90
41427;DHT22;27171;51.812;19.514;2023-04-03T18:38:18;2.10;99.90
41427;DHT22;27171;51.812;19.514;2023-04-03T18:41:20;2.10;99.90
41427;DHT22;27171;51.812;19.514;2023-04-03T18:44:24;2.00;99.90
41427;DHT22;27171;51.812;19.514;2023-04-03T18:47:26;2.00;99.90
41427;DHT22;27171;51.812;19.514;2023-04-03T18:50:29;2.00;99.90
41427;DHT22;27171;51.812;19.514;2023-04-03T18:53:30;1.90;99.90
41427;DHT22;27171;51.812;19.514;2023-04-03T18:56:31;1.90;99.90
41427;DHT22;27171;51.812;19.514;2023-04-03T18:59:32;1.80;99.90
41427;DHT22;27171;51.812;19.514;2023-04-03T19:02:33;1.80;99.90
41427;DHT22;27171;51.812;19.514;2023-04-03T19:05:34;1.70;99.90
41427;DHT22;27171;51.812;19.514;2023-04-03T19:08:36;1.70;99.90
41427;DHT22;27171;51.812;19.514;2023-04-03T19:11:36;1.60;99.90
41427;DHT22;27171;51.812;19.514;2023-04-03T19:14:37;1.60;99.90
41427;DHT22;27171;51.812;19.514;2023-04-03T19:17:38;1.50;99.90
41427;DHT22;27171;51.812;19.514;2023-04-03T19:20:40;1.40;99.90
41427;DHT22;27171;51.812;19.514;2023-04-03T19:23:41;1.40;99.90
41427;DHT22;27171;51.812;19.514;2023-04-03T19:26:42;1.40;99.90
41427;DHT22;27171;51.812;19.514;2023-04-03T19:29:42;1.20;99.90
41427;DHT22;27171;51.812;19.514;2023-04-03T19:32:44;1.20;99.90
41427;DHT22;27171;51.812;19.514;2023-04-03T19:35:45;1.10;99.90
41427;DHT22;27171;51.812;19.514;2023-04-03T19:38:47;1.10;99.90
41427;DHT22;27171;51.812;19.514;2023-04-03T19:41:50;1.10;99.90
41427;DHT22;27171;51.812;19.514;2023-04-03T19:44:52;1.00;99.90
41427;DHT22;27171;51.812;19.514;2023-04-03T19:47:53;1.00;99.90
41427;DHT22;27171;51.812;19.514;2023-04-03T19:50:55;0.90;99.90
41427;DHT22;27171;51.812;19.514;2023-04-03T19:53:56;0.90;99.90
41427;DHT22;27171;51.812;19.514;2023-04-03T19:56:57;0.80;99.90
41427;DHT22;27171;51.812;19.514;2023-04-03T19:59:58;0.80;99.90
41427;DHT22;27171;51.812;19.514;2023-04-03T20:02:59;0.70;99.90
41427;DHT22;27171;51.812;19.514;2023-04-03T20:06:00;0.70;99.90
41427;DHT22;27171;51.812;19.514;2023-04-03T20:09:01;0.70;99.90
41427;DHT22;27171;51.812;19.514;2023-04-03T20:12:24;0.60;99.90
41427;DHT22;27171;51.812;19.514;2023-04-03T20:15:25;0.60;99.90
41427;DHT22;27171;51.812;19.514;2023-04-03T20:18:26;0.50;99.90
41427;DHT22;27171;51.812;19.514;2023-04-03T20:21:29;0.50;99.90
41427;DHT22;27171;51.812;19.514;2023-04-03T20:24:31;0.50;99.90
41427;DHT22;27171;51.812;19.514;2023-04-03T20:27:32;0.40;99.90
41427;DHT22;27171;51.812;19.514;2023-04-03T20:30:34;0.40;99.90
41427;DHT22;27171;51.812;19.514;2023-04-03T20:33:35;0.30;99.90